Saint Marys, Indiana
Current Conditions -  °F | °C
As of 4:54 AM on Saturday 25 Oct 2014 (Local Time) from KSBN Reporting Station
Clear Clear  
Wind Chill: 55°   Ceiling: Unl
Heat Index: 55°   Visibility: 9mi
Dew Point: 50°   Wind: 9mph
Humidity: 83%   Direction: 220°SW
Pressure: 29.9"   Gusts: NA
Location:  41.7197°N, 86.2504°W
Report Text: KSBN 250854Z 22008KT 9SM CLR 13/10 A2990 RMK AO2 SLP124 T01280100 56019
Loading
Personal Weather Stations






























Interactive Weather Map
Tropical Storm Tracking
New forecast layout! Learn more

10-Day Weather Forecast

Advertisements
Track Severe Weather on mobile